CheckWX is a tool to help pilots better visualize weather data.  It is not intended as a substitute for an official pre-flight weather briefing.

10:03:00 UTC

KACP METAR
Allen Parish Airport
Oakdale, Louisiana, USA
Current

26 mins ago

KACP 250937Z AUTO 00000KT 1 1/4SM BR OVC002 10/09 A2981 RMK AO2
Observed
Feb-25 @ 09:37 UTC
Visibility
1 1/4 SM
Flight Rules
LIFR
Conditions
Mist
Cloud Levels
  • Overcast at 200' AGL
Temperature
10°C / 50°F
Dewpoint
C / 48°F
Humidity
94%
Altimeter
29.81" Hg
Pressure
1009.52 hPa
Previous

46 mins ago

KACP 250917Z AUTO 00000KT 1/2SM FG OVC002 10/09 A2982 RMK AO2
Observed
Feb-25 @ 09:17 UTC
Visibility
1/2 SM
Flight Rules
LIFR
Conditions
Fog
Cloud Levels
  • Overcast at 200' AGL
Temperature
10°C / 50°F
Dewpoint
C / 48°F
Humidity
94%
Altimeter
29.82" Hg
Pressure
1009.82 hPa
Previous

1 hour ago

KACP 250858Z AUTO 00000KT 1/2SM FG OVC002 10/09 A2983 RMK AO2
Observed
Feb-25 @ 08:58 UTC
Visibility
1/2 SM
Flight Rules
LIFR
Conditions
Fog
Cloud Levels
  • Overcast at 200' AGL
Temperature
10°C / 50°F
Dewpoint
C / 48°F
Humidity
94%
Altimeter
29.83" Hg
Pressure
1010.12 hPa